Address 0x9336277b73885f826b0360a17028df7fe0af3d38

 
 
Txn Hash
Block
From
To
Value [Txn Fee]
0x4966e38be707e4e634f566885cb3e93a36099ab2789bf048cb529ca4074fb15795045452021-07-26 21:47:3257 mins ago0x9336277b73885f826b0360a17028df7fe0af3d38OUT 0xae4b47b8e005f0c6aa55bd0e2790a80e6e6028430 BNB0.00066584
0x70960f3cc2842a5a80b3bd03ccba4b1e5da9dbc74e47e6bbdea8a5a98fade3ec95045182021-07-26 21:46:1158 mins ago0x9336277b73885f826b0360a17028df7fe0af3d38SELF0x9336277b73885f826b0360a17028df7fe0af3d380 BNB0.00011812605
0x8bbd6690a23ab696f96e903225fab930ad037dd9916908abeba61fb278be30c295040982021-07-26 21:24:491 hr 19 mins ago0x9336277b73885f826b0360a17028df7fe0af3d38OUT 0xae4b47b8e005f0c6aa55bd0e2790a80e6e6028430 BNB0.000647173252
0xb112af721b6223379630a5902390a1b308e7192d917bc40ef7a21dc406e3fb6d95039762021-07-26 21:18:431 hr 25 mins ago0x9336277b73885f826b0360a17028df7fe0af3d38OUT 0xae4b47b8e005f0c6aa55bd0e2790a80e6e6028430 BNB0.000818735833
0x72f051e71d3afffaecd18af46d2523171a80277cd79b4a1e1169f863a8ba02aa95037912021-07-26 21:09:281 hr 35 mins ago0x9336277b73885f826b0360a17028df7fe0af3d38OUT 0xae4b47b8e005f0c6aa55bd0e2790a80e6e6028430 BNB0.000706956
0x92b248d96945cc7dc3bec6cc23b06ec44a3d3aeeac1a62c213ff420e445db90095030322021-07-26 20:31:252 hrs 13 mins ago0x9336277b73885f826b0360a17028df7fe0af3d38SELF0x9336277b73885f826b0360a17028df7fe0af3d380 BNB0.00011812605
0x45c31d34e1725323bcb632c3fbf169e9445707e2f7ca670d0c43159e78976e1195026702021-07-26 20:12:402 hrs 31 mins ago0x9336277b73885f826b0360a17028df7fe0af3d38OUT 0xae4b47b8e005f0c6aa55bd0e2790a80e6e6028430 BNB0.000549065
0x7bb0d1af512dfef2fef0c6fd29dc5683ed4ebc0f5d2e73362325c25ad37fe9ac95024872021-07-26 20:03:292 hrs 41 mins ago0x9336277b73885f826b0360a17028df7fe0af3d38OUT 0xae4b47b8e005f0c6aa55bd0e2790a80e6e6028430 BNB0.000169405
0xb0131433bd17318e9c2d3986325cd452dee1c69428eb5df2c2852ca5bde03dd595022162021-07-26 19:49:542 hrs 54 mins ago0x9336277b73885f826b0360a17028df7fe0af3d38OUT 0xae4b47b8e005f0c6aa55bd0e2790a80e6e6028430 BNB0.00018539
0x5d572e0f1f0e7789d89db9ad61e63f10614c9e2d77c941a690a6761e9d75a83795001442021-07-26 18:02:044 hrs 42 mins ago0x9336277b73885f826b0360a17028df7fe0af3d38OUT 0xae4b47b8e005f0c6aa55bd0e2790a80e6e6028430 BNB0.000549425
0x4969cf253352672899190c0cd100b25c09e4a7152188476c4e22ee182bc44db294996792021-07-26 17:38:185 hrs 6 mins ago0x9336277b73885f826b0360a17028df7fe0af3d38SELF0x9336277b73885f826b0360a17028df7fe0af3d380 BNB0.00011812605
0x6f07d2eb3095e1037d87fa54fb1e0a4ed9238bba47260974fdd568b763ef114c94988542021-07-26 16:55:145 hrs 49 mins ago0x9336277b73885f826b0360a17028df7fe0af3d38OUT 0xae4b47b8e005f0c6aa55bd0e2790a80e6e6028430 BNB0.000549425
0x1200acd49a03e8ac6dfd166b052d9aa220bcef18f1345e7f602281e5da839df894984762021-07-26 16:35:266 hrs 9 mins ago0x9336277b73885f826b0360a17028df7fe0af3d38SELF0x9336277b73885f826b0360a17028df7fe0af3d380 BNB0.00011812605
0x46708b3b73a75ef578c12a21b49eafac60b96a363c8e94db4ae57eb8385cdc2994983802021-07-26 16:30:276 hrs 14 mins ago0x9336277b73885f826b0360a17028df7fe0af3d38SELF0x9336277b73885f826b0360a17028df7fe0af3d380 BNB0.00011812605
0x1671e62d512ee64e0a72f1a814b6c22e89a22784b592a5b2dc1b19eefcd7f4be94982102021-07-26 16:21:486 hrs 22 mins ago0x9336277b73885f826b0360a17028df7fe0af3d38SELF0x9336277b73885f826b0360a17028df7fe0af3d380 BNB0.000797357925
0x7f56805f5d4969d2ebd1ffe118621dc7381833b2df67a29946f466c4c887efce94948812021-07-26 13:28:149 hrs 16 mins ago0x9336277b73885f826b0360a17028df7fe0af3d38SELF0x9336277b73885f826b0360a17028df7fe0af3d380 BNB0.00011812605
0x63ed7a021408504339b29ee98acc492e98159dadaed3b66ff9726585eaa52fe994937732021-07-26 12:30:5510 hrs 13 mins ago0x9336277b73885f826b0360a17028df7fe0af3d38SELF0x9336277b73885f826b0360a17028df7fe0af3d380 BNB0.00075600672
0xaeb450bc6b9441a9d4c3be4b7c60d45f687a5a30cb1695f8aa1c64b4b83f408994936622021-07-26 12:25:1410 hrs 19 mins ago0x9336277b73885f826b0360a17028df7fe0af3d38OUT 0xae4b47b8e005f0c6aa55bd0e2790a80e6e6028430 BNB0.003348621
0x0c900360769f0013c8294522ab3ee0d0dbd63e91ee6bebd60f6c2431d9603b2294924752021-07-26 11:22:0811 hrs 22 mins ago0x9336277b73885f826b0360a17028df7fe0af3d38OUT 0xae4b47b8e005f0c6aa55bd0e2790a80e6e6028430 BNB0.004464828
0x1fa44acf566969dc50b7955127bea3a6b056052c12e8f6f6f70278efbf9bf37a94921382021-07-26 11:03:3211 hrs 41 mins ago0x9336277b73885f826b0360a17028df7fe0af3d38SELF0x9336277b73885f826b0360a17028df7fe0af3d380 BNB0.000556720986
0x71881bf59828e25241700e7d70b0698267f44f53df55922a7f0c7781af1cd88d94918002021-07-26 10:45:5811 hrs 58 mins ago0x9336277b73885f826b0360a17028df7fe0af3d38OUT 0xae4b47b8e005f0c6aa55bd0e2790a80e6e6028430 BNB0.00276354904
0xb915753d166a22b0f8fa294370740fa081d81991d8e3637d3e7006b98f4c186b94911682021-07-26 10:14:0712 hrs 30 mins ago0x9336277b73885f826b0360a17028df7fe0af3d38OUT 0xae4b47b8e005f0c6aa55bd0e2790a80e6e6028430 BNB0.00280292104
0xc435ef33574ee4c553aac12dcc01ff3d43bdf03ad5bb1d96e61607d00d1ef79a94906352021-07-26 9:45:5312 hrs 58 mins ago0x9336277b73885f826b0360a17028df7fe0af3d38OUT 0xae4b47b8e005f0c6aa55bd0e2790a80e6e6028430 BNB0.005068492241
0x3d2481a374c83d5caa465ff7f0e9254bd1b7dd03c7a8ed925089d29a2983dd6894906162021-07-26 9:44:4612 hrs 59 mins ago0x9336277b73885f826b0360a17028df7fe0af3d38OUT 0xae4b47b8e005f0c6aa55bd0e2790a80e6e6028430 BNB0.00018707
0xc09a255da84dec407e8a43e479af1438c5ecfe0ffe5199ab3d37cb6118a1804094891372021-07-26 8:29:2014 hrs 15 mins ago0x9336277b73885f826b0360a17028df7fe0af3d38OUT 0xae4b47b8e005f0c6aa55bd0e2790a80e6e6028430 BNB0.003669175385
[ Download CSV Export 
Parent Txn Hash Block From To Value
Loading

Contract Name:
0 BNB

Compiler Version
0

Optimization Enabled:
0 BNB

Other Settings:
-NA-
Block Transaction Gas Used Reward
Age Block Fee Address BC Fee Address Voting Power Jailed Incoming
Block Uncle Number Difficulty Gas Used Reward
Loading
Loading
Make sure to use the "Vote Down" button for any spammy posts, and the "Vote Up" for interesting conversations.